Terminal Aerodrome Forecast
Issued by NWS Kansas City/Pleasant Hill, MO

Home | Current Version | Previous Version | Text Only | Print | Product List | Glossary On
Versions: 1 2 3 4 5 6 7 8 9 10 11 12 13 14 15 16 17 18 19 20 21 22 23
226
FTUS43 KEAX 241451 AAA
TAFMCI
TAF AMD
KMCI 241451Z 2415/2512 19016G30KT P6SM VCTS SCT060CB BKN080
      TEMPO 2415/2417 3SM -TSRA BKN060CB
     FM241800 18011G21KT P6SM -SHRA VCTS OVC030CB
     FM250300 11006KT P6SM VCSH BKN015
     FM250600 06006KT 5SM -RA BKN008=

USA.gov is the U.S. government's official web portal to all federal, state and local government web resources and services.